createdAt,value
2017-07-17T15:45:24.624Z,2.20
2017-07-17T15:47:54.249Z,2.20
2017-07-17T15:50:23.821Z,1.90
2017-07-17T15:52:53.394Z,2.00
2017-07-17T15:55:23.044Z,2.10
2017-07-17T15:57:52.536Z,2.23
2017-07-17T16:00:22.178Z,2.13
2017-07-17T16:02:51.721Z,2.20
2017-07-17T16:05:21.211Z,2.07
2017-07-17T16:07:50.736Z,2.30
2017-07-17T16:10:20.302Z,2.00
2017-07-17T16:12:49.819Z,1.50
2017-07-17T20:38:36.877Z,2.58
2017-07-17T20:41:06.427Z,2.22
2017-07-17T20:43:35.934Z,2.03
2017-07-17T20:46:05.545Z,4.62
2017-07-17T20:48:35.030Z,3.42
2017-07-17T20:51:04.590Z,3.80
2017-07-17T20:53:34.110Z,2.87
2017-07-17T20:56:03.641Z,2.97
2017-07-17T20:58:33.130Z,2.33
2017-07-17T21:01:02.635Z,2.80
2017-07-17T21:03:32.156Z,2.30
2017-07-17T21:06:01.662Z,2.53
2017-07-17T21:08:31.165Z,2.92
2017-07-17T21:11:00.672Z,3.03
2017-07-17T21:13:30.195Z,2.83
2017-07-17T21:15:59.708Z,3.10
2017-07-17T21:18:29.237Z,2.95
2017-07-17T21:20:58.757Z,4.07
2017-07-17T21:23:28.252Z,4.05
2017-07-17T21:25:57.775Z,3.37
2017-07-17T21:28:27.302Z,3.70
2017-07-17T21:30:56.813Z,3.85
2017-07-17T21:33:26.291Z,4.43
2017-07-17T21:35:55.816Z,3.85
2017-07-17T21:38:25.297Z,4.05
2017-07-17T21:40:54.785Z,3.80
2017-07-17T21:43:24.289Z,3.55
2017-07-17T21:45:53.784Z,3.00
2017-07-17T21:48:23.333Z,2.75
2017-07-17T21:50:52.837Z,3.17
2017-07-17T21:53:22.328Z,2.80
2017-07-17T21:55:51.806Z,3.33
2017-07-17T21:58:21.357Z,3.95
2017-07-17T22:00:50.841Z,3.10
2017-07-17T22:03:20.392Z,3.40
2017-07-17T22:05:49.851Z,3.45
2017-07-17T22:08:19.382Z,2.72
2017-07-17T22:10:49.678Z,2.72
2017-07-17T22:13:19.265Z,2.70
2017-07-17T22:15:48.762Z,2.80
2017-07-17T22:18:18.307Z,2.22
2017-07-17T22:20:47.809Z,2.37
2017-07-17T22:23:17.313Z,2.12
2017-07-17T22:25:46.815Z,2.70
2017-07-17T22:28:16.332Z,2.15
2017-07-17T22:30:45.849Z,2.60
2017-07-17T22:33:15.333Z,2.15
